sensor_id;sensor_type;location;lat;lon;timestamp;pressure;altitude;pressure_sealevel;temperature;humidity
23170;BME280;11753;43.144;24.714;2023-02-16T00:00:48;101013.91;;;1.74;88.46
23170;BME280;11753;43.144;24.714;2023-02-16T00:01:49;101014.63;;;1.78;88.18
23170;BME280;11753;43.144;24.714;2023-02-16T00:02:50;101015.75;;;1.72;88.31
23170;BME280;11753;43.144;24.714;2023-02-16T00:03:53;101009.56;;;1.75;88.04
23170;BME280;11753;43.144;24.714;2023-02-16T00:04:54;101012.34;;;1.70;87.96
23170;BME280;11753;43.144;24.714;2023-02-16T00:05:55;101017.53;;;1.70;88.19
23170;BME280;11753;43.144;24.714;2023-02-16T00:06:56;101011.63;;;1.67;87.86
23170;BME280;11753;43.144;24.714;2023-02-16T00:07:58;101010.31;;;1.56;88.29
23170;BME280;11753;43.144;24.714;2023-02-16T00:09:00;101017.47;;;1.51;88.88
23170;BME280;11753;43.144;24.714;2023-02-16T00:10:01;101009.84;;;1.47;88.97
23170;BME280;11753;43.144;24.714;2023-02-16T00:11:02;101006.47;;;1.45;89.26
23170;BME280;11753;43.144;24.714;2023-02-16T00:12:21;101007.56;;;1.39;89.51
23170;BME280;11753;43.144;24.714;2023-02-16T00:13:41;101006.41;;;1.46;89.23
23170;BME280;11753;43.144;24.714;2023-02-16T00:14:47;101008.25;;;1.43;89.20
23170;BME280;11753;43.144;24.714;2023-02-16T00:15:48;101016.25;;;1.38;89.50
23170;BME280;11753;43.144;24.714;2023-02-16T00:16:49;101011.16;;;1.35;89.35
23170;BME280;11753;43.144;24.714;2023-02-16T00:17:51;101006.88;;;1.34;89.63
23170;BME280;11753;43.144;24.714;2023-02-16T00:18:53;101011.44;;;1.29;89.98
23170;BME280;11753;43.144;24.714;2023-02-16T00:19:54;101006.47;;;1.23;90.07
23170;BME280;11753;43.144;24.714;2023-02-16T00:20:54;101008.03;;;1.27;90.15
23170;BME280;11753;43.144;24.714;2023-02-16T00:21:58;101013.97;;;1.30;90.31
23170;BME280;11753;43.144;24.714;2023-02-16T00:22:59;101009.47;;;1.34;90.23
23170;BME280;11753;43.144;24.714;2023-02-16T00:23:59;101006.53;;;1.21;90.37
23170;BME280;11753;43.144;24.714;2023-02-16T00:25:00;101000.16;;;1.30;90.73
23170;BME280;11753;43.144;24.714;2023-02-16T00:26:01;101001.31;;;1.21;90.65
23170;BME280;11753;43.144;24.714;2023-02-16T00:27:08;101008.16;;;1.24;90.60
23170;BME280;11753;43.144;24.714;2023-02-16T00:28:16;101006.59;;;1.20;90.85
23170;BME280;11753;43.144;24.714;2023-02-16T00:29:29;100999.63;;;1.22;90.74
23170;BME280;11753;43.144;24.714;2023-02-16T00:30:31;101003.22;;;1.18;90.97
23170;BME280;11753;43.144;24.714;2023-02-16T00:31:31;101004.91;;;1.19;91.07
23170;BME280;11753;43.144;24.714;2023-02-16T00:32:32;101010.75;;;1.24;90.65
23170;BME280;11753;43.144;24.714;2023-02-16T00:33:33;101001.63;;;1.14;90.92
23170;BME280;11753;43.144;24.714;2023-02-16T00:34:40;100998.16;;;1.15;91.09
23170;BME280;11753;43.144;24.714;2023-02-16T00:35:41;101003.94;;;1.21;90.91
23170;BME280;11753;43.144;24.714;2023-02-16T00:36:42;101006.47;;;1.23;90.86
23170;BME280;11753;43.144;24.714;2023-02-16T00:37:44;101002.00;;;1.26;90.88
23170;BME280;11753;43.144;24.714;2023-02-16T00:38:45;101000.44;;;1.22;90.79
23170;BME280;11753;43.144;24.714;2023-02-16T00:39:45;100999.09;;;1.34;90.41
23170;BME280;11753;43.144;24.714;2023-02-16T00:40:47;101007.31;;;1.23;90.36
23170;BME280;11753;43.144;24.714;2023-02-16T00:41:47;101003.09;;;1.21;90.69
23170;BME280;11753;43.144;24.714;2023-02-16T00:42:51;100997.84;;;1.22;90.71
23170;BME280;11753;43.144;24.714;2023-02-16T00:43:52;101003.09;;;1.21;90.69
23170;BME280;11753;43.144;24.714;2023-02-16T00:44:56;100996.28;;;1.18;90.93
23170;BME280;11753;43.144;24.714;2023-02-16T00:45:58;101004.00;;;1.20;90.92
23170;BME280;11753;43.144;24.714;2023-02-16T00:47:09;101002.19;;;1.22;90.94
23170;BME280;11753;43.144;24.714;2023-02-16T00:48:12;100998.03;;;1.18;90.87
23170;BME280;11753;43.144;24.714;2023-02-16T00:49:18;100998.88;;;1.18;91.03
23170;BME280;11753;43.144;24.714;2023-02-16T00:50:30;100996.09;;;1.01;91.40
23170;BME280;11753;43.144;24.714;2023-02-16T00:51:31;100999.31;;;1.07;91.62
23170;BME280;11753;43.144;24.714;2023-02-16T00:52:39;100993.00;;;1.13;91.57
23170;BME280;11753;43.144;24.714;2023-02-16T00:53:47;100994.50;;;0.97;91.66
23170;BME280;11753;43.144;24.714;2023-02-16T00:54:47;100995.34;;;0.97;91.81
23170;BME280;11753;43.144;24.714;2023-02-16T00:55:48;101000.19;;;1.06;91.60
23170;BME280;11753;43.144;24.714;2023-02-16T00:56:49;100996.81;;;1.04;91.79
23170;BME280;11753;43.144;24.714;2023-02-16T00:57:57;100995.25;;;1.00;92.29
23170;BME280;11753;43.144;24.714;2023-02-16T00:59:05;100985.53;;;1.05;92.16
23170;BME280;11753;43.144;24.714;2023-02-16T01:00:33;100992.66;;;1.00;92.05
23170;BME280;11753;43.144;24.714;2023-02-16T01:01:34;100993.31;;;1.05;91.95
23170;BME280;11753;43.144;24.714;2023-02-16T01:02:36;100991.53;;;1.07;92.07
23170;BME280;11753;43.144;24.714;2023-02-16T01:03:36;100992.47;;;1.05;92.10
23170;BME280;11753;43.144;24.714;2023-02-16T01:04:37;100997.41;;;1.11;92.14
23170;BME280;11753;43.144;24.714;2023-02-16T01:05:38;100989.50;;;1.14;91.95
23170;BME280;11753;43.144;24.714;2023-02-16T01:06:39;100987.66;;;1.18;91.81
23170;BME280;11753;43.144;24.714;2023-02-16T01:07:58;100987.03;;;1.11;91.58
23170;BME280;11753;43.144;24.714;2023-02-16T01:09:19;100987.03;;;1.11;91.55
23170;BME280;11753;43.144;24.714;2023-02-16T01:10:39;100987.09;;;1.09;91.63
23170;BME280;11753;43.144;24.714;2023-02-16T01:12:00;100987.09;;;1.09;91.43
23170;BME280;11753;43.144;24.714;2023-02-16T01:13:01;100986.34;;;1.07;91.81
23170;BME280;11753;43.144;24.714;2023-02-16T01:14:02;100988.03;;;1.08;91.69
23170;BME280;11753;43.144;24.714;2023-02-16T01:15:05;100984.69;;;1.05;91.71
23170;BME280;11753;43.144;24.714;2023-02-16T01:16:16;100988.03;;;1.08;91.75
23170;BME280;11753;43.144;24.714;2023-02-16T01:17:17;100985.44;;;1.08;91.57
23170;BME280;11753;43.144;24.714;2023-02-16T01:18:19;100982.94;;;1.05;92.10
23170;BME280;11753;43.144;24.714;2023-02-16T01:19:19;100987.09;;;1.09;91.76
23170;BME280;11753;43.144;24.714;2023-02-16T01:20:22;100986.34;;;1.07;91.93
23170;BME280;11753;43.144;24.714;2023-02-16T01:21:23;100986.19;;;1.10;91.62
23170;BME280;11753;43.144;24.714;2023-02-16T01:22:24;100983.75;;;1.07;91.87
23170;BME280;11753;43.144;24.714;2023-02-16T01:23:24;100978.50;;;1.09;91.79
23170;BME280;11753;43.144;24.714;2023-02-16T01:24:26;100988.03;;;1.08;91.46
23170;BME280;11753;43.144;24.714;2023-02-16T01:25:27;100984.53;;;1.09;91.32
23170;BME280;11753;43.144;24.714;2023-02-16T01:26:28;100983.13;;;1.01;91.59
23170;BME280;11753;43.144;24.714;2023-02-16T01:27:32;100985.28;;;1.12;91.69
23170;BME280;11753;43.144;24.714;2023-02-16T01:28:33;100978.50;;;1.09;91.31
23170;BME280;11753;43.144;24.714;2023-02-16T01:29:35;100983.47;;;1.14;91.29
23170;BME280;11753;43.144;24.714;2023-02-16T01:30:36;100979.09;;;1.16;90.65
23170;BME280;11753;43.144;24.714;2023-02-16T01:31:37;100977.44;;;1.13;90.34
23170;BME280;11753;43.144;24.714;2023-02-16T01:32:38;100980.69;;;0.96;90.98
23170;BME280;11753;43.144;24.714;2023-02-16T01:33:40;100972.69;;;1.02;91.26
23170;BME280;11753;43.144;24.714;2023-02-16T01:34:41;100981.38;;;1.01;90.98
23170;BME280;11753;43.144;24.714;2023-02-16T01:35:43;100974.31;;;1.05;91.00
23170;BME280;11753;43.144;24.714;2023-02-16T01:36:45;100973.84;;;0.95;91.21
23170;BME280;11753;43.144;24.714;2023-02-16T01:37:46;100975.59;;;0.95;91.28
23170;BME280;11753;43.144;24.714;2023-02-16T01:38:48;100980.84;;;0.93;91.41
23170;BME280;11753;43.144;24.714;2023-02-16T01:39:49;100974.75;;;0.94;91.58
23170;BME280;11753;43.144;24.714;2023-02-16T01:40:58;100967.81;;;0.95;91.52
23170;BME280;11753;43.144;24.714;2023-02-16T01:43:17;100974.59;;;0.97;91.23
23170;BME280;11753;43.144;24.714;2023-02-16T01:44:40;100971.09;;;0.98;91.18
23170;BME280;11753;43.144;24.714;2023-02-16T01:45:50;100978.19;;;0.95;91.44
23170;BME280;11753;43.144;24.714;2023-02-16T01:47:04;100977.88;;;1.02;91.36
23170;BME280;11753;43.144;24.714;2023-02-16T01:48:36;100969.44;;;0.97;91.39
23170;BME280;11753;43.144;24.714;2023-02-16T01:49:37;100973.00;;;0.95;91.01
23170;BME280;11753;43.144;24.714;2023-02-16T01:50:47;100972.38;;;0.88;91.48
23170;BME280;11753;43.144;24.714;2023-02-16T01:52:40;100970.78;;;0.84;91.79
23170;BME280;11753;43.144;24.714;2023-02-16T01:55:30;100968.34;;;0.81;92.34
23170;BME280;11753;43.144;24.714;2023-02-16T01:56:42;100971.88;;;0.78;92.82
23170;BME280;11753;43.144;24.714;2023-02-16T01:57:53;100976.34;;;0.75;92.61
23170;BME280;11753;43.144;24.714;2023-02-16T01:59:02;100972.06;;;0.74;92.42
23170;BME280;11753;43.144;24.714;2023-02-16T02:00:12;100966.03;;;0.73;92.76
23170;BME280;11753;43.144;24.714;2023-02-16T02:01:35;100971.00;;;0.79;92.62
23170;BME280;11753;43.144;24.714;2023-02-16T02:02:45;100970.25;;;0.76;92.54
23170;BME280;11753;43.144;24.714;2023-02-16T02:03:47;100970.84;;;0.82;92.47
23170;BME280;11753;43.144;24.714;2023-02-16T02:05:26;100973.00;;;0.71;92.91
23170;BME280;11753;43.144;24.714;2023-02-16T02:06:35;100975.56;;;0.73;93.02
23170;BME280;11753;43.144;24.714;2023-02-16T02:07:59;100972.91;;;0.74;92.90
23170;BME280;11753;43.144;24.714;2023-02-16T02:09:25;100974.94;;;0.66;93.13
23170;BME280;11753;43.144;24.714;2023-02-16T02:13:49;100968.69;;;0.72;92.97
23170;BME280;11753;43.144;24.714;2023-02-16T02:14:52;100968.84;;;0.67;92.66
23170;BME280;11753;43.144;24.714;2023-02-16T02:15:55;100971.81;;;0.58;92.75
23170;BME280;11753;43.144;24.714;2023-02-16T02:17:00;100963.81;;;0.63;92.87
23170;BME280;11753;43.144;24.714;2023-02-16T02:18:03;100966.88;;;0.74;92.76
23170;BME280;11753;43.144;24.714;2023-02-16T02:19:04;100965.78;;;0.58;92.66
23170;BME280;11753;43.144;24.714;2023-02-16T02:20:13;100963.00;;;0.62;92.67
23170;BME280;11753;43.144;24.714;2023-02-16T02:26:07;100955.50;;;0.54;92.70
23170;BME280;11753;43.144;24.714;2023-02-16T02:27:39;100955.50;;;0.54;93.22
23170;BME280;11753;43.144;24.714;2023-02-16T02:28:50;100950.53;;;0.48;93.10
23170;BME280;11753;43.144;24.714;2023-02-16T02:31:26;100953.47;;;0.63;93.30
23170;BME280;11753;43.144;24.714;2023-02-16T02:33:57;100954.53;;;0.34;93.92
23170;BME280;11753;43.144;24.714;2023-02-16T02:37:02;100949.91;;;0.42;93.75
23170;BME280;11753;43.144;24.714;2023-02-16T02:44:04;100952.47;;;0.43;94.02
23170;BME280;11753;43.144;24.714;2023-02-16T02:45:13;100951.72;;;0.40;94.41
23170;BME280;11753;43.144;24.714;2023-02-16T02:46:34;100953.53;;;0.38;94.48
23170;BME280;11753;43.144;24.714;2023-02-16T02:47:43;100952.16;;;0.27;94.55
23170;BME280;11753;43.144;24.714;2023-02-16T02:48:44;100951.84;;;0.37;94.58
23170;BME280;11753;43.144;24.714;2023-02-16T02:49:52;100949.31;;;0.35;94.62
23170;BME280;11753;43.144;24.714;2023-02-16T02:51:02;100949.19;;;0.15;95.32
23170;BME280;11753;43.144;24.714;2023-02-16T02:52:22;100948.09;;;0.22;95.38
23170;BME280;11753;43.144;24.714;2023-02-16T02:53:23;100950.19;;;0.34;95.09
23170;BME280;11753;43.144;24.714;2023-02-16T02:54:30;100949.56;;;0.29;95.10
23170;BME280;11753;43.144;24.714;2023-02-16T02:55:51;100951.09;;;0.33;95.19
23170;BME280;11753;43.144;24.714;2023-02-16T02:58:39;100950.72;;;0.44;94.54
23170;BME280;11753;43.144;24.714;2023-02-16T03:01:32;100952.34;;;0.46;93.92
23170;BME280;11753;43.144;24.714;2023-02-16T03:02:35;100943.19;;;0.38;94.32
23170;BME280;11753;43.144;24.714;2023-02-16T03:03:48;100957.13;;;0.34;94.46
23170;BME280;11753;43.144;24.714;2023-02-16T03:04:51;100954.38;;;0.38;94.46
23170;BME280;11753;43.144;24.714;2023-02-16T03:05:58;100951.84;;;0.37;94.50
23170;BME280;11753;43.144;24.714;2023-02-16T03:07:03;100953.19;;;0.47;94.34
23170;BME280;11753;43.144;24.714;2023-02-16T03:08:10;100956.75;;;0.44;94.20
23170;BME280;11753;43.144;24.714;2023-02-16T03:09:15;100947.16;;;0.46;94.32
23170;BME280;11753;43.144;24.714;2023-02-16T03:10:25;100946.47;;;0.41;94.26
23170;BME280;11753;43.144;24.714;2023-02-16T03:11:48;100949.53;;;0.52;94.17
23170;BME280;11753;43.144;24.714;2023-02-16T03:13:22;100960.81;;;0.51;93.25
23170;BME280;11753;43.144;24.714;2023-02-16T03:14:50;100956.69;;;0.46;93.59
23170;BME280;11753;43.144;24.714;2023-02-16T03:15:54;100954.38;;;0.38;93.38
23170;BME280;11753;43.144;24.714;2023-02-16T03:17:02;100950.81;;;0.41;93.43
23170;BME280;11753;43.144;24.714;2023-02-16T03:18:26;100949.06;;;0.41;93.63
23170;BME280;11753;43.144;24.714;2023-02-16T03:19:49;100948.84;;;0.47;93.41
23170;BME280;11753;43.144;24.714;2023-02-16T03:21:12;100955.44;;;0.33;94.20
23170;BME280;11753;43.144;24.714;2023-02-16T03:22:33;100956.50;;;0.27;94.50
23170;BME280;11753;43.144;24.714;2023-02-16T03:23:57;100949.06;;;0.18;95.04
23170;BME280;11753;43.144;24.714;2023-02-16T03:25:19;100943.00;;;0.19;95.26
23170;BME280;11753;43.144;24.714;2023-02-16T03:26:41;100948.84;;;0.24;95.20
23170;BME280;11753;43.144;24.714;2023-02-16T03:28:03;100947.34;;;0.18;95.46
23170;BME280;11753;43.144;24.714;2023-02-16T03:29:25;100946.91;;;0.31;95.00
23170;BME280;11753;43.144;24.714;2023-02-16T03:30:27;100953.84;;;0.28;95.24
23170;BME280;11753;43.144;24.714;2023-02-16T03:31:37;100955.72;;;0.25;95.30
23170;BME280;11753;43.144;24.714;2023-02-16T03:32:40;100956.78;;;0.43;95.07
23170;BME280;11753;43.144;24.714;2023-02-16T03:33:41;100952.50;;;0.42;94.30
23170;BME280;11753;43.144;24.714;2023-02-16T03:34:42;100955.94;;;0.42;94.48
23170;BME280;11753;43.144;24.714;2023-02-16T03:35:44;100968.13;;;0.40;94.28
23170;BME280;11753;43.144;24.714;2023-02-16T03:36:48;100959.91;;;0.29;94.65
23170;BME280;11753;43.144;24.714;2023-02-16T03:37:50;100957.06;;;0.35;94.50
23170;BME280;11753;43.144;24.714;2023-02-16T03:38:51;100956.19;;;0.36;94.63
23170;BME280;11753;43.144;24.714;2023-02-16T03:39:54;100957.13;;;0.34;94.63
23170;BME280;11753;43.144;24.714;2023-02-16T03:41:13;100965.53;;;0.40;94.42
23170;BME280;11753;43.144;24.714;2023-02-16T03:42:14;100958.72;;;0.38;93.97
23170;BME280;11753;43.144;24.714;2023-02-16T03:43:15;100959.66;;;0.35;93.84
23170;BME280;11753;43.144;24.714;2023-02-16T03:44:17;100958.53;;;0.42;93.74
23170;BME280;11753;43.144;24.714;2023-02-16T03:45:21;100961.47;;;0.33;93.54
23170;BME280;11753;43.144;24.714;2023-02-16T03:46:22;100959.63;;;0.37;93.76
23170;BME280;11753;43.144;24.714;2023-02-16T03:47:24;100963.78;;;0.41;93.70
23170;BME280;11753;43.144;24.714;2023-02-16T03:48:25;100966.78;;;0.30;93.65
23170;BME280;11753;43.144;24.714;2023-02-16T03:49:26;100968.47;;;0.31;93.73
23170;BME280;11753;43.144;24.714;2023-02-16T03:50:27;100969.41;;;0.28;93.77
23170;BME280;11753;43.144;24.714;2023-02-16T03:51:28;100963.28;;;0.31;94.03
23170;BME280;11753;43.144;24.714;2023-02-16T03:52:29;100966.78;;;0.30;94.02
23170;BME280;11753;43.144;24.714;2023-02-16T03:53:30;100965.97;;;0.28;94.09
23170;BME280;11753;43.144;24.714;2023-02-16T03:54:31;100958.44;;;0.22;93.97
23170;BME280;11753;43.144;24.714;2023-02-16T03:55:43;100961.81;;;0.24;93.86
23170;BME280;11753;43.144;24.714;2023-02-16T03:56:44;100968.69;;;0.25;94.19
23170;BME280;11753;43.144;24.714;2023-02-16T03:57:45;100959.91;;;0.29;93.60
23170;BME280;11753;43.144;24.714;2023-02-16T03:58:46;100955.22;;;0.15;93.83
23170;BME280;11753;43.144;24.714;2023-02-16T03:59:47;100965.47;;;0.18;93.99
23170;BME280;11753;43.144;24.714;2023-02-16T04:00:49;100969.84;;;0.16;94.01
23170;BME280;11753;43.144;24.714;2023-02-16T04:01:50;100969.00;;;0.16;94.43
23170;BME280;11753;43.144;24.714;2023-02-16T04:02:51;100966.16;;;0.23;94.28
23170;BME280;11753;43.144;24.714;2023-02-16T04:03:52;100963.09;;;0.12;94.18
23170;BME280;11753;43.144;24.714;2023-02-16T04:04:53;100964.84;;;0.12;94.41
23170;BME280;11753;43.144;24.714;2023-02-16T04:05:54;100959.44;;;0.18;94.15
23170;BME280;11753;43.144;24.714;2023-02-16T04:06:58;100962.25;;;0.12;94.06
23170;BME280;11753;43.144;24.714;2023-02-16T04:07:59;100953.69;;;0.10;94.18
23170;BME280;11753;43.144;24.714;2023-02-16T04:09:00;100963.09;;;0.12;94.41
23170;BME280;11753;43.144;24.714;2023-02-16T04:10:01;100963.78;;;0.17;94.03
23170;BME280;11753;43.144;24.714;2023-02-16T04:11:02;100968.13;;;0.17;94.11
23170;BME280;11753;43.144;24.714;2023-02-16T04:12:23;100965.63;;;0.14;94.47
23170;BME280;11753;43.144;24.714;2023-02-16T04:13:36;100970.50;;;0.23;94.19
23170;BME280;11753;43.144;24.714;2023-02-16T04:14:37;100965.84;;;0.08;94.41
23170;BME280;11753;43.144;24.714;2023-02-16T04:15:38;100959.59;;;0.13;94.61
23170;BME280;11753;43.144;24.714;2023-02-16T04:16:40;100965.94;;;0.05;94.81
23170;BME280;11753;43.144;24.714;2023-02-16T04:17:42;100964.84;;;0.12;94.80
23170;BME280;11753;43.144;24.714;2023-02-16T04:18:43;100971.03;;;0.08;95.02
23170;BME280;11753;43.144;24.714;2023-02-16T04:19:44;100968.19;;;0.14;94.81
23170;BME280;11753;43.144;24.714;2023-02-16T04:20:45;100968.31;;;0.11;94.88
23170;BME280;11753;43.144;24.714;2023-02-16T04:21:46;100964.63;;;0.18;94.93
23170;BME280;11753;43.144;24.714;2023-02-16T04:22:47;100964.69;;;0.16;94.65
23170;BME280;11753;43.144;24.714;2023-02-16T04:23:48;100965.19;;;0.26;94.36
23170;BME280;11753;43.144;24.714;2023-02-16T04:24:49;100962.25;;;0.12;94.62
23170;BME280;11753;43.144;24.714;2023-02-16T04:25:50;100963.84;;;0.16;94.31
23170;BME280;11753;43.144;24.714;2023-02-16T04:26:51;100951.78;;;0.15;94.27
23170;BME280;11753;43.144;24.714;2023-02-16T04:27:52;100961.56;;;0.07;94.14
23170;BME280;11753;43.144;24.714;2023-02-16T04:28:53;100955.38;;;0.11;94.06
23170;BME280;11753;43.144;24.714;2023-02-16T04:29:54;100959.09;;;0.04;94.04
23170;BME280;11753;43.144;24.714;2023-02-16T04:30:55;100959.09;;;0.04;94.24
23170;BME280;11753;43.144;24.714;2023-02-16T04:31:56;100960.78;;;0.05;94.22
23170;BME280;11753;43.144;24.714;2023-02-16T04:32:57;100953.91;;;0.04;94.52
23170;BME280;11753;43.144;24.714;2023-02-16T04:33:59;100957.59;;;-0.04;94.82
23170;BME280;11753;43.144;24.714;2023-02-16T04:35:00;100962.56;;;0.03;94.92
23170;BME280;11753;43.144;24.714;2023-02-16T04:36:01;100967.63;;;0.06;94.43
23170;BME280;11753;43.144;24.714;2023-02-16T04:37:02;100964.63;;;0.18;94.54
23170;BME280;11753;43.144;24.714;2023-02-16T04:38:03;100959.81;;;0.07;94.54
23170;BME280;11753;43.144;24.714;2023-02-16T04:39:04;100960.19;;;-0.04;94.88
23170;BME280;11753;43.144;24.714;2023-02-16T04:40:06;100958.56;;;-0.06;95.20
23170;BME280;11753;43.144;24.714;2023-02-16T04:41:08;100960.19;;;-0.04;95.50
23170;BME280;11753;43.144;24.714;2023-02-16T04:42:09;100958.59;;;-0.08;95.33
23170;BME280;11753;43.144;24.714;2023-02-16T04:43:09;100962.84;;;-0.05;95.29
23170;BME280;11753;43.144;24.714;2023-02-16T04:44:10;100969.91;;;-0.10;95.61
23170;BME280;11753;43.144;24.714;2023-02-16T04:45:12;100966.47;;;-0.11;95.42
23170;BME280;11753;43.144;24.714;2023-02-16T04:46:12;100966.28;;;-0.05;95.80
23170;BME280;11753;43.144;24.714;2023-02-16T04:47:13;100966.16;;;-0.02;95.37
23170;BME280;11753;43.144;24.714;2023-02-16T04:48:14;100962.66;;;-0.01;95.42
23170;BME280;11753;43.144;24.714;2023-02-16T04:49:15;100967.75;;;0.03;95.40
23170;BME280;11753;43.144;24.714;2023-02-16T04:50:16;100967.84;;;-0.01;95.31
23170;BME280;11753;43.144;24.714;2023-02-16T04:51:17;100967.00;;;-0.01;94.93
23170;BME280;11753;43.144;24.714;2023-02-16T04:52:18;100973.72;;;0.05;94.88
23170;BME280;11753;43.144;24.714;2023-02-16T04:53:19;100963.75;;;-0.06;94.94
23170;BME280;11753;43.144;24.714;2023-02-16T04:54:20;100965.59;;;-0.10;94.98
23170;BME280;11753;43.144;24.714;2023-02-16T04:55:22;100960.59;;;-0.16;95.33
23170;BME280;11753;43.144;24.714;2023-02-16T04:56:22;100960.53;;;-0.13;94.65
23170;BME280;11753;43.144;24.714;2023-02-16T04:57:24;100959.03;;;-0.20;94.72
23170;BME280;11753;43.144;24.714;2023-02-16T04:58:25;100960.59;;;-0.14;94.80
23170;BME280;11753;43.144;24.714;2023-02-16T04:59:26;100966.59;;;-0.14;94.83
23170;BME280;11753;43.144;24.714;2023-02-16T05:00:27;100959.75;;;-0.16;94.57
23170;BME280;11753;43.144;24.714;2023-02-16T05:01:28;100955.63;;;-0.20;94.79
23170;BME280;11753;43.144;24.714;2023-02-16T05:02:31;100965.38;;;-0.29;95.06
23170;BME280;11753;43.144;24.714;2023-02-16T05:03:32;100952.31;;;-0.25;94.99
23170;BME280;11753;43.144;24.714;2023-02-16T05:04:33;100954.91;;;-0.25;95.30
23170;BME280;11753;43.144;24.714;2023-02-16T05:05:34;100965.41;;;-0.30;95.28
23170;BME280;11753;43.144;24.714;2023-02-16T05:06:37;100964.31;;;-0.23;95.05
23170;BME280;11753;43.144;24.714;2023-02-16T05:07:38;100965.22;;;-0.24;94.99
23170;BME280;11753;43.144;24.714;2023-02-16T05:08:39;100967.00;;;-0.26;94.97
23170;BME280;11753;43.144;24.714;2023-02-16T05:09:40;100958.59;;;-0.33;95.24
23170;BME280;11753;43.144;24.714;2023-02-16T05:10:41;100962.19;;;-0.37;95.18
23170;BME280;11753;43.144;24.714;2023-02-16T05:11:42;100958.75;;;-0.37;95.21
23170;BME280;11753;43.144;24.714;2023-02-16T05:13:05;100954.47;;;-0.38;94.86
23170;BME280;11753;43.144;24.714;2023-02-16T05:14:28;100958.28;;;-0.48;95.25
23170;BME280;11753;43.144;24.714;2023-02-16T05:15:41;100953.09;;;-0.48;95.65
23170;BME280;11753;43.144;24.714;2023-02-16T05:16:43;100963.28;;;-0.44;95.58
23170;BME280;11753;43.144;24.714;2023-02-16T05:17:43;100959.06;;;-0.46;96.00
23170;BME280;11753;43.144;24.714;2023-02-16T05:18:44;100965.03;;;-0.44;95.72
23170;BME280;11753;43.144;24.714;2023-02-16T05:19:48;100960.75;;;-0.45;95.86
23170;BME280;11753;43.144;24.714;2023-02-16T05:20:49;100972.78;;;-0.44;95.71
23170;BME280;11753;43.144;24.714;2023-02-16T05:22:09;100961.31;;;-0.36;95.66
23170;BME280;11753;43.144;24.714;2023-02-16T05:23:10;100962.94;;;-0.33;95.47
23170;BME280;11753;43.144;24.714;2023-02-16T05:24:11;100961.97;;;-0.31;95.50
23170;BME280;11753;43.144;24.714;2023-02-16T05:25:12;100967.06;;;-0.28;95.56
23170;BME280;11753;43.144;24.714;2023-02-16T05:26:13;100963.72;;;-0.31;95.65
23170;BME280;11753;43.144;24.714;2023-02-16T05:27:24;100966.38;;;-0.33;95.89
23170;BME280;11753;43.144;24.714;2023-02-16T05:28:26;100968.19;;;-0.36;95.85
23170;BME280;11753;43.144;24.714;2023-02-16T05:29:27;100967.31;;;-0.35;95.89
23170;BME280;11753;43.144;24.714;2023-02-16T05:30:27;100963.72;;;-0.31;95.62
23170;BME280;11753;43.144;24.714;2023-02-16T05:31:28;100972.19;;;-0.26;95.24
23170;BME280;11753;43.144;24.714;2023-02-16T05:32:29;100973.16;;;-0.29;95.35
23170;BME280;11753;43.144;24.714;2023-02-16T05:33:30;100974.78;;;-0.26;95.32
23170;BME280;11753;43.144;24.714;2023-02-16T05:34:31;100978.09;;;-0.22;95.40
23170;BME280;11753;43.144;24.714;2023-02-16T05:35:32;100973.09;;;-0.27;95.54
23170;BME280;11753;43.144;24.714;2023-02-16T05:36:33;100977.38;;;-0.26;95.62
23170;BME280;11753;43.144;24.714;2023-02-16T05:37:34;100981.53;;;-0.22;95.87
23170;BME280;11753;43.144;24.714;2023-02-16T05:38:35;100978.00;;;-0.19;95.92
23170;BME280;11753;43.144;24.714;2023-02-16T05:39:36;100978.66;;;-0.13;95.91
23170;BME280;11753;43.144;24.714;2023-02-16T05:40:37;100981.16;;;-0.11;95.63
23170;BME280;11753;43.144;24.714;2023-02-16T05:41:38;100977.53;;;-0.06;95.78
23170;BME280;11753;43.144;24.714;2023-02-16T05:42:39;100979.22;;;-0.05;95.38
23170;BME280;11753;43.144;24.714;2023-02-16T05:43:40;100977.94;;;0.07;95.13
23170;BME280;11753;43.144;24.714;2023-02-16T05:44:41;100987.44;;;0.07;94.86
23170;BME280;11753;43.144;24.714;2023-02-16T05:45:42;100988.25;;;0.09;94.74
23170;BME280;11753;43.144;24.714;2023-02-16T05:46:44;100985.28;;;0.19;94.50
23170;BME280;11753;43.144;24.714;2023-02-16T05:47:46;100987.81;;;0.21;94.27
23170;BME280;11753;43.144;24.714;2023-02-16T05:48:47;100980.16;;;0.18;94.13
23170;BME280;11753;43.144;24.714;2023-02-16T05:49:48;100988.06;;;0.15;94.07
23170;BME280;11753;43.144;24.714;2023-02-16T05:50:53;100986.19;;;0.18;94.21
23170;BME280;11753;43.144;24.714;2023-02-16T05:51:54;100991.09;;;0.26;93.79
23170;BME280;11753;43.144;24.714;2023-02-16T05:52:55;100989.97;;;0.33;93.60
23170;BME280;11753;43.144;24.714;2023-02-16T05:53:57;100984.78;;;0.33;93.20
23170;BME280;11753;43.144;24.714;2023-02-16T05:54:58;100989.97;;;0.33;93.28
23170;BME280;11753;43.144;24.714;2023-02-16T05:55:59;100985.41;;;0.40;92.85
23170;BME280;11753;43.144;24.714;2023-02-16T05:57:00;100983.66;;;0.40;92.95
23170;BME280;11753;43.144;24.714;2023-02-16T05:58:01;100987.72;;;0.47;92.96
23170;BME280;11753;43.144;24.714;2023-02-16T05:59:02;100998.78;;;0.52;92.55
23170;BME280;11753;43.144;24.714;2023-02-16T06:00:03;100993.38;;;0.59;92.63
23170;BME280;11753;43.144;24.714;2023-02-16T06:01:05;100989.97;;;0.57;92.32
23170;BME280;11753;43.144;24.714;2023-02-16T06:02:06;100992.47;;;0.60;92.02
23170;BME280;11753;43.144;24.714;2023-02-16T06:03:09;100988.06;;;0.62;91.80
23170;BME280;11753;43.144;24.714;2023-02-16T06:04:12;100996.88;;;0.58;91.48
23170;BME280;11753;43.144;24.714;2023-02-16T06:05:14;100999.56;;;0.54;90.74